Thunder radar more information blitzortung!


Radar de pluja more information rain snow radar


Visita la nostra xarxa de llocs de meteo:

Template documentation
and downloads

And another site



No particular awareness of the weather is required.    There are no Weather-warnings

Pagina Historial Weather Underground text

Diari Resum Juliol 12, 2017 Unitats:  Mètric    Imperial   Tant
« Previous Dia
SegĂźent Dia »
Diari Setmana Mensual Anual Personalitzada
  Maxima: Minima: Media:
Temperatura: -17.8 °C -5.5 °C -1.8 °C
Punt de rosada: -17.8 °C -8.1 °C -6.9 °C
Humitat: Humidity % 40 % 59 %
Wind Speed: 0 km/h 0 km/h 14.5 km/h
RĂ fegues de vent: 0 km/h - -
Vent:- - SE
Pression baro: 0 hPa 34293.4 hPa -
Precipitacions: 0 mm    
Historical Graphs
 
 
Dades de taula per Juliol 12, 2017
Temps Temperatura Punt de rosada Pression baro Vent Wind Speed RĂ fegues de vent Humitat Rainfall Rate (Hourly)
-17.8 °C -17.8 °C 0 hPa Calm     Humidity % 0 mm
00:01 -4.4 °C -6.4 °C 34395 hPa SE 12.7 km/h 12.7 km/h 80 % 0 mm
00:06 -4.4 °C -6.4 °C 34395 hPa SE 11.9 km/h 11.9 km/h 80 % 0 mm
04:15 -3.8 °C -6.3 °C 34395 hPa SW 2.6 km/h 5.1 km/h 76 % 0 mm
04:25 -3.5 °C -6.2 °C 34395 hPa SSW 2.6 km/h 5.1 km/h 75 % 0 mm
04:45 -3.2 °C -6.1 °C 34395 hPa West 5.1 km/h 7.7 km/h 73 % 0 mm
04:55 -2.8 °C -6.1 °C 34395 hPa West 2.6 km/h 5.1 km/h 70 % 0 mm
05:05 -2.5 °C -6.1 °C 34428.8 hPa SE 5.1 km/h 7.7 km/h 68 % 0 mm
05:15 -2.3 °C -5.9 °C 34395 hPa South 2.6 km/h 10.3 km/h 68 % 0 mm
05:25 -2.1 °C -6.1 °C 34395 hPa SSW 2.6 km/h 7.7 km/h 65 % 0 mm
10:33 -1.9 °C -6.1 °C 34395 hPa West 9 km/h 9 km/h 64 % 0 mm
10:38 -1.8 °C -6 °C 34361.1 hPa West 9 km/h 9 km/h 64 % 0 mm
10:43 -1.9 °C -6.1 °C 34361.1 hPa WSW 15 km/h 15 km/h 64 % 0 mm
10:48 -1.7 °C -6 °C 34361.1 hPa WNW 11.9 km/h 11.9 km/h 63 % 0 mm
10:53 -1.2 °C -5.8 °C 34395 hPa South 7.6 km/h 7.6 km/h 61 % 0 mm
10:58 -1.3 °C -5.9 °C 34395 hPa WSW 11.9 km/h 11.9 km/h 61 % 0 mm
11:03 -1.6 °C -6.2 °C 34395 hPa West 15 km/h 15 km/h 61 % 0 mm
11:08 -1.6 °C -6.2 °C 34395 hPa South 9.8 km/h 9.8 km/h 61 % 0 mm
11:13 -1.4 °C -6.2 °C 34395 hPa SE 15 km/h 15 km/h 60 % 0 mm
11:18 -1.1 °C -6 °C 34395 hPa SSW 11.9 km/h 11.9 km/h 59 % 0 mm
11:23 -1.2 °C -6.3 °C 34395 hPa SSW 8 km/h 8 km/h 58 % 0 mm
11:28 -0.7 °C -5.9 °C 34395 hPa SW 11.9 km/h 11.9 km/h 57 % 0 mm
11:33 -0.6 °C -6.2 °C 34395 hPa SSW 11.9 km/h 11.9 km/h 55 % 0 mm
11:38 -0.6 °C -6.2 °C 34395 hPa South 17.4 km/h 17.4 km/h 55 % 0 mm
11:43 -0.7 °C -6.4 °C 34395 hPa SSW 11.9 km/h 11.9 km/h 54 % 0 mm
11:48 -0.6 °C -6.3 °C 34395 hPa SSW 15 km/h 15 km/h 54 % 0 mm
11:53 -0.3 °C -6.3 °C 34361.1 hPa SW 9 km/h 9 km/h 53 % 0 mm
11:58 -0.2 °C -6.3 °C 34361.1 hPa SW 17.9 km/h 17.9 km/h 52 % 0 mm
12:03 -0.3 °C -6.6 °C 34361.1 hPa WSW 15 km/h 15 km/h 51 % 0 mm
12:08 0 °C -6.3 °C 34361.1 hPa West 16.6 km/h 16.6 km/h 51 % 0 mm
12:13 0.1 °C -6.6 °C 34361.1 hPa South 9 km/h 9 km/h 49 % 0 mm
12:18 0.1 °C -6.6 °C 34361.1 hPa WNW 17.9 km/h 17.9 km/h 49 % 0 mm
12:23 0.1 °C -6.6 °C 34361.1 hPa WSW 11.9 km/h 11.9 km/h 49 % 0 mm
12:28 0.2 °C -6.5 °C 34361.1 hPa South 12.2 km/h 12.2 km/h 49 % 0 mm
12:33 0.3 °C -6.4 °C 34361.1 hPa WSW 15 km/h 15 km/h 49 % 0 mm
12:38 0.4 °C -6.5 °C 34361.1 hPa SSE 9.3 km/h 9.3 km/h 48 % 0 mm
12:43 0.8 °C -6.3 °C 34361.1 hPa SW 17.9 km/h 17.9 km/h 47 % 0 mm
12:48 0.7 °C -6.6 °C 34361.1 hPa SSW 9 km/h 9 km/h 46 % 0 mm
12:53 1.1 °C -6.3 °C 34361.1 hPa SE 6.3 km/h 6.3 km/h 46 % 0 mm
12:58 0.9 °C -6.4 °C 34361.1 hPa WSW 11.9 km/h 11.9 km/h 46 % 0 mm
13:03 0.9 °C -6.4 °C 34361.1 hPa SW 18.3 km/h 18.3 km/h 46 % 0 mm
13:08 0.7 °C -6.6 °C 34327.3 hPa SW 9 km/h 9 km/h 46 % 0 mm
13:13 0.5 °C -6.8 °C 34327.3 hPa NNE 11.9 km/h 11.9 km/h 46 % 0 mm
13:18 0.9 °C -6.4 °C 34327.3 hPa SW 15 km/h 15 km/h 46 % 0 mm
13:23 1 °C -6.6 °C 34327.3 hPa SW 15 km/h 15 km/h 45 % 0 mm
13:28 0.8 °C -6.9 °C 34327.3 hPa NE 6.3 km/h 6.3 km/h 44 % 0 mm
13:33 1.1 °C -6.8 °C 34327.3 hPa West 9 km/h 9 km/h 43 % 0 mm
13:38 1.2 °C -6.6 °C 34293.4 hPa SW 19.6 km/h 19.6 km/h 44 % 0 mm
13:43 0.9 °C -7 °C 34293.4 hPa WSW 6.8 km/h 6.8 km/h 43 % 0 mm
13:48 1.5 °C -6.5 °C 34293.4 hPa West 6 km/h 6 km/h 43 % 0 mm
13:53 1.7 °C -6.6 °C 34327.3 hPa West 9 km/h 9 km/h 42 % 0 mm
13:58 1.4 °C -7 °C 34327.3 hPa WSW 15 km/h 15 km/h 41 % 0 mm
14:03 1.6 °C -6.9 °C 34327.3 hPa East 15.6 km/h 15.6 km/h 41 % 0 mm
14:08 1.1 °C -7.1 °C 34327.3 hPa ESE 8.5 km/h 8.5 km/h 42 % 0 mm
14:13 1.3 °C -6.9 °C 34327.3 hPa SW 15 km/h 15 km/h 42 % 0 mm
14:18 1.3 °C -6.9 °C 34327.3 hPa ESE 17.9 km/h 17.9 km/h 42 % 0 mm
14:23 1.4 °C -7.1 °C 34327.3 hPa ESE 9 km/h 9 km/h 41 % 0 mm
14:28 1.1 °C -7.3 °C 34327.3 hPa SW 15 km/h 15 km/h 41 % 0 mm
14:33 1.1 °C -7.1 °C 34327.3 hPa ESE 20.9 km/h 20.9 km/h 42 % 0 mm
14:38 0.9 °C -7.4 °C 34327.3 hPa ESE 20.9 km/h 20.9 km/h 41 % 0 mm
14:43 0.9 °C -7.2 °C 34327.3 hPa East 10.3 km/h 10.3 km/h 42 % 0 mm
14:48 0.9 °C -7.4 °C 34327.3 hPa SSE 16.1 km/h 16.1 km/h 41 % 0 mm
14:54 0.8 °C -7.6 °C 34327.3 hPa ESE 17.9 km/h 17.9 km/h 41 % 0 mm
14:59 0.8 °C -7.6 °C 34327.3 hPa ESE 17.9 km/h 17.9 km/h 41 % 0 mm
15:04 1.3 °C -7.1 °C 34327.3 hPa SE 17.9 km/h 17.9 km/h 41 % 0 mm
15:09 1.2 °C -7.2 °C 34327.3 hPa ENE 20.9 km/h 20.9 km/h 41 % 0 mm
15:14 1.5 °C -6.9 °C 34327.3 hPa East 11.9 km/h 11.9 km/h 41 % 0 mm
15:19 1 °C -7.4 °C 34327.3 hPa SE 20.9 km/h 20.9 km/h 41 % 0 mm
15:24 0.9 °C -7.4 °C 34327.3 hPa ENE 26.9 km/h 26.9 km/h 41 % 0 mm
15:29 1.4 °C -7.1 °C 34327.3 hPa WNW 11.9 km/h 11.9 km/h 41 % 0 mm
15:34 1.7 °C -7 °C 34327.3 hPa SW 15 km/h 15 km/h 40 % 0 mm
15:39 1.9 °C -6.8 °C 34327.3 hPa SW 17.9 km/h 17.9 km/h 40 % 0 mm
15:44 2.3 °C -6.4 °C 34327.3 hPa SW 10.3 km/h 10.3 km/h 40 % 0 mm
15:49 2.2 °C -6.6 °C 34327.3 hPa SSW 20.9 km/h 20.9 km/h 40 % 0 mm
15:54 2.4 °C -6.3 °C 34327.3 hPa South 15.3 km/h 15.3 km/h 40 % 0 mm
15:59 2.4 °C -6.3 °C 34327.3 hPa SSW 11.1 km/h 11.1 km/h 40 % 0 mm
16:04 2.4 °C -6.3 °C 34327.3 hPa SW 18.3 km/h 18.3 km/h 40 % 0 mm
16:09 2.3 °C -6.4 °C 34327.3 hPa WSW 9 km/h 9 km/h 40 % 0 mm
16:14 2.3 °C -6.4 °C 34327.3 hPa WSW 9 km/h 9 km/h 40 % 0 mm
16:19 2 °C -6.7 °C 34327.3 hPa SSW 25.1 km/h 25.1 km/h 40 % 0 mm
16:35 1.6 °C -6.8 °C 34327.3 hPa SSW 17.9 km/h 17.9 km/h 41 % 0 mm
16:40 1.6 °C -6.9 °C 34327.3 hPa SW 15 km/h 15.3 km/h 41 % 0 mm
16:45 1.8 °C -6.9 °C 34327.3 hPa SW 15 km/h 15 km/h 40 % 0 mm
16:50 1.8 °C -6.9 °C 34327.3 hPa SW 16.6 km/h 16.6 km/h 40 % 0 mm
16:55 1.6 °C -6.9 °C 34327.3 hPa SW 15 km/h 15 km/h 41 % 0 mm
17:00 1.4 °C -6.8 °C 34327.3 hPa SW 15 km/h 15 km/h 42 % 0 mm
17:05 1.4 °C -6.8 °C 34327.3 hPa SW 15 km/h 15 km/h 42 % 0 mm
17:10 1.7 °C -6.8 °C 34293.4 hPa SSW 11.9 km/h 11.9 km/h 41 % 0 mm
17:15 1.7 °C -6.8 °C 34293.4 hPa SSE 7.6 km/h 7.6 km/h 41 % 0 mm
17:20 1.3 °C -6.9 °C 34293.4 hPa East 8 km/h 8 km/h 42 % 0 mm
17:25 0.7 °C -7.4 °C 34327.3 hPa SE 19.2 km/h 19.2 km/h 42 % 0 mm
17:30 0.2 °C -7.7 °C 34327.3 hPa SE 15 km/h 15 km/h 43 % 0 mm
17:35 0.2 °C -7.7 °C 34327.3 hPa ESE 17.9 km/h 17.9 km/h 43 % 0 mm
17:40 0.2 °C -7.7 °C 34327.3 hPa ENE 15 km/h 15 km/h 43 % 0 mm
17:45 0.1 °C -7.8 °C 34327.3 hPa East 23.8 km/h 23.8 km/h 43 % 0 mm
17:50 -0.3 °C -8.1 °C 34327.3 hPa SE 23.8 km/h 23.8 km/h 43 % 0 mm
17:55 -0.5 °C -8.1 °C 34327.3 hPa ESE 32.8 km/h 32.8 km/h 44 % 0 mm
17:56 -0.5 °C -8.1 °C 34327.3 hPa ESE 32.8 km/h 32.8 km/h 44 % 0 mm
18:01 -0.5 °C -8.1 °C 34327.3 hPa ESE 28.2 km/h 28.2 km/h 44 % 0 mm
18:06 -0.7 °C -8.1 °C 34327.3 hPa East 20.9 km/h 20.9 km/h 45 % 0 mm
18:11 -0.7 °C -7.9 °C 34293.4 hPa ENE 20.9 km/h 20.9 km/h 46 % 0 mm
18:16 -0.8 °C -7.9 °C 34293.4 hPa ESE 23.3 km/h 23.3 km/h 46 % 0 mm
18:21 -0.8 °C -7.8 °C 34293.4 hPa ESE 29.8 km/h 29.8 km/h 47 % 0 mm
18:26 -0.9 °C -7.9 °C 34327.3 hPa ENE 26.9 km/h 26.9 km/h 47 % 0 mm
18:31 -1 °C -7.8 °C 34327.3 hPa East 20.9 km/h 20.9 km/h 48 % 0 mm
18:36 -1.2 °C -7.8 °C 34327.3 hPa ENE 26.9 km/h 26.9 km/h 49 % 0 mm
18:41 -1.4 °C -7.8 °C 34327.3 hPa SSW 23.8 km/h 23.8 km/h 50 % 0 mm
18:46 -1.5 °C -7.7 °C 34327.3 hPa ESE 26.9 km/h 26.9 km/h 51 % 0 mm
18:51 -1.6 °C -7.7 °C 34327.3 hPa East 35.7 km/h 35.7 km/h 52 % 0 mm
18:56 -1.7 °C -7.6 °C 34361.1 hPa ENE 26.9 km/h 26.9 km/h 53 % 0 mm
19:01 -1.8 °C -7.3 °C 34361.1 hPa East 29.8 km/h 29.8 km/h 55 % 0 mm
19:06 -1.9 °C -7.3 °C 34361.1 hPa ENE 35.7 km/h 35.7 km/h 56 % 0 mm
19:11 -1.9 °C -7.3 °C 34361.1 hPa ESE 26.9 km/h 26.9 km/h 56 % 0 mm
19:15 -4.4 °C -6.8 °C 34462.7 hPa NE 5.1 km/h 7.7 km/h 77 % 0 mm
19:16 -2 °C -7.2 °C 34361.1 hPa ESE 20.9 km/h 22.5 km/h 57 % 0 mm
19:21 -2.1 °C -7.3 °C 34361.1 hPa ESE 15 km/h 15.6 km/h 57 % 0 mm
19:25 -4.4 °C -6.8 °C 34462.7 hPa ENE 5.1 km/h 7.7 km/h 77 % 0 mm
19:26 -2.2 °C -7.2 °C 34361.1 hPa ENE 32.8 km/h 32.8 km/h 58 % 0 mm
19:31 -2.3 °C -7.1 °C 34361.1 hPa NNE 26.4 km/h 26.4 km/h 59 % 0 mm
19:35 -4.5 °C -6.9 °C 34462.7 hPa NE 5.1 km/h 10.3 km/h 77 % 0 mm
19:36 -2.4 °C -7.1 °C 34361.1 hPa East 26.9 km/h 26.9 km/h 60 % 0 mm
19:41 -2.4 °C -6.9 °C 34361.1 hPa ESE 23.8 km/h 23.8 km/h 61 % 0 mm
19:45 -4.6 °C -6.8 °C 34462.7 hPa NE 5.1 km/h 7.7 km/h 78 % 0 mm
19:46 -2.4 °C -7 °C 34361.1 hPa NW 17.9 km/h 17.9 km/h 61 % 0 mm
19:51 -2.5 °C -6.9 °C 34361.1 hPa SE 17.9 km/h 17.9 km/h 62 % 0 mm
19:55 -4.6 °C -6.8 °C 34462.7 hPa NNE 2.6 km/h 5.1 km/h 78 % 0 mm
19:56 -2.6 °C -7 °C 34361.1 hPa East 20.9 km/h 20.9 km/h 62 % 0 mm
20:01 -2.7 °C -7 °C 34361.1 hPa ENE 16.6 km/h 16.6 km/h 63 % 0 mm
20:05 -4.6 °C -6.9 °C 34462.7 hPa NE 2.6 km/h 5.1 km/h 78 % 0 mm
20:06 -2.7 °C -6.8 °C 34361.1 hPa ESE 20.9 km/h 20.9 km/h 64 % 0 mm
20:11 -2.8 °C -6.9 °C 34361.1 hPa NNE 26.9 km/h 26.9 km/h 64 % 0 mm
20:15 -4.6 °C -6.9 °C 34462.7 hPa ENE 2.6 km/h 2.6 km/h 78 % 0 mm
20:16 -2.9 °C -6.7 °C 34361.1 hPa SE 15 km/h 15 km/h 66 % 0 mm
20:21 -2.9 °C -6.7 °C 34361.1 hPa NE 29.8 km/h 29.8 km/h 66 % 0 mm
20:25 -4.7 °C -6.9 °C 34462.7 hPa Calm     78 % 0 mm
20:26 -2.9 °C -6.8 °C 34361.1 hPa ENE 26.4 km/h 26.4 km/h 66 % 0 mm
20:31 -3.1 °C -6.7 °C 34361.1 hPa ESE 27.2 km/h 27.2 km/h 67 % 0 mm
20:32 -3.1 °C -6.7 °C 34361.1 hPa SE 26.9 km/h 26.9 km/h 67 % 0 mm
20:35 -4.7 °C -7 °C 34462.7 hPa Calm     78 % 0 mm
20:37 -3.1 °C -6.7 °C 34361.1 hPa SSE 20.3 km/h 20.3 km/h 68 % 0 mm
20:42 -3.2 °C -6.8 °C 34395 hPa East 26.9 km/h 26.9 km/h 67 % 0 mm
20:45 -4.7 °C -6.8 °C 34462.7 hPa Calm     79 % 0 mm
20:47 -3.2 °C -6.8 °C 34395 hPa ENE 26.9 km/h 26.9 km/h 68 % 0 mm
20:52 -3.2 °C -6.8 °C 34395 hPa ENE 29.8 km/h 29.8 km/h 68 % 0 mm
20:55 -4.7 °C -6.8 °C 34462.7 hPa Calm   2.6 km/h 79 % 0 mm
20:57 -3.3 °C -6.9 °C 34395 hPa East 17.9 km/h 17.9 km/h 68 % 0 mm
21:02 -3.4 °C -6.8 °C 34395 hPa ENE 32.8 km/h 32.8 km/h 69 % 0 mm
21:05 -4.8 °C -6.9 °C 34462.7 hPa Calm   5.1 km/h 79 % 0 mm
21:07 -3.4 °C -6.8 °C 34395 hPa ENE 20.9 km/h 20.9 km/h 69 % 0 mm
21:13 -3.4 °C -6.8 °C 34395 hPa ESE 23.8 km/h 23.8 km/h 69 % 0 mm
21:15 -4.8 °C -7 °C 34462.7 hPa Calm     79 % 0 mm
21:18 -3.5 °C -6.8 °C 34395 hPa ENE 26.9 km/h 26.9 km/h 70 % 0 mm
21:23 -3.5 °C -6.8 °C 34361.1 hPa ESE 27.2 km/h 27.2 km/h 70 % 0 mm
21:25 -4.9 °C -7.1 °C 34462.7 hPa Calm     79 % 0 mm
21:28 -3.6 °C -6.8 °C 34361.1 hPa SE 23.8 km/h 23.8 km/h 70 % 0 mm
21:33 -3.6 °C -6.9 °C 34361.1 hPa ESE 26.9 km/h 26.9 km/h 70 % 0 mm
21:35 -5.1 °C -7.1 °C 34462.7 hPa Calm     80 % 0 mm
21:38 -3.6 °C -6.9 °C 34395 hPa ENE 15 km/h 15 km/h 70 % 0 mm
21:43 -3.7 °C -6.9 °C 34395 hPa East 23.8 km/h 23.8 km/h 70 % 0 mm
21:45 -5.1 °C -7 °C 34462.7 hPa Calm     81 % 0 mm
21:48 -3.7 °C -6.9 °C 34395 hPa ESE 20.9 km/h 20.9 km/h 70 % 0 mm
21:53 -3.7 °C -6.8 °C 34395 hPa ESE 20.9 km/h 20.9 km/h 71 % 0 mm
21:55 -5.1 °C -7 °C 34462.7 hPa NE 2.6 km/h 2.6 km/h 81 % 0 mm
21:58 -3.7 °C -6.8 °C 34395 hPa ENE 16.1 km/h 16.1 km/h 71 % 0 mm
22:03 -3.8 °C -6.9 °C 34395 hPa ENE 15 km/h 15 km/h 71 % 0 mm
22:05 -5.1 °C -6.9 °C 34462.7 hPa NE 2.6 km/h 2.6 km/h 82 % 0 mm
22:08 -3.8 °C -6.8 °C 34395 hPa ENE 11.9 km/h 11.9 km/h 72 % 0 mm
22:13 -3.8 °C -6.7 °C 34395 hPa NE 15 km/h 15 km/h 73 % 0 mm
22:15 -5.1 °C -6.9 °C 34462.7 hPa Calm   2.6 km/h 82 % 0 mm
22:18 -3.9 °C -6.8 °C 34395 hPa East 14 km/h 14 km/h 73 % 0 mm
22:23 -3.9 °C -6.7 °C 34428.8 hPa NE 16.1 km/h 16.1 km/h 74 % 0 mm
22:25 -5.1 °C -6.9 °C 34462.7 hPa Calm     82 % 0 mm
22:28 -4 °C -6.6 °C 34428.8 hPa East 17.9 km/h 17.9 km/h 75 % 0 mm
22:33 -4 °C -6.6 °C 34428.8 hPa ENE 17.9 km/h 17.9 km/h 75 % 0 mm
22:35 -5.1 °C -6.9 °C 34462.7 hPa ENE 2.6 km/h 2.6 km/h 82 % 0 mm
22:38 -4.1 °C -6.7 °C 34428.8 hPa ENE 17.9 km/h 17.9 km/h 75 % 0 mm
22:43 -4.1 °C -6.7 °C 34428.8 hPa East 15 km/h 15 km/h 75 % 0 mm
22:45 -5.1 °C -6.9 °C 34462.7 hPa Calm   2.6 km/h 82 % 0 mm
22:48 -4.1 °C -6.7 °C 34428.8 hPa NNE 9.8 km/h 9.8 km/h 75 % 0 mm
22:53 -4.2 °C -6.8 °C 34462.7 hPa ENE 9 km/h 9 km/h 75 % 0 mm
22:55 -5.2 °C -7 °C 34462.7 hPa Calm     82 % 0 mm
22:58 -4.2 °C -6.8 °C 34462.7 hPa ENE 16.6 km/h 16.6 km/h 75 % 0 mm
23:03 -4.2 °C -6.8 °C 34462.7 hPa ENE 15 km/h 15 km/h 75 % 0 mm
23:05 -5.2 °C -7 °C 34462.7 hPa Calm   2.6 km/h 82 % 0 mm
23:08 -4.2 °C -6.7 °C 34462.7 hPa East 15.3 km/h 15.3 km/h 76 % 0 mm
23:13 -4.2 °C -6.7 °C 34462.7 hPa ENE 15 km/h 15 km/h 76 % 0 mm
23:15 -5.3 °C -7.1 °C 34428.8 hPa Calm     82 % 0 mm
23:18 -4.2 °C -6.7 °C 34462.7 hPa East 14 km/h 14 km/h 76 % 0 mm
23:23 -4.2 °C -6.8 °C 34462.7 hPa ESE 15 km/h 15 km/h 75 % 0 mm
23:25 -5.4 °C -7.2 °C 34428.8 hPa Calm     82 % 0 mm
23:28 -4.2 °C -6.7 °C 34462.7 hPa East 9 km/h 9 km/h 76 % 0 mm
23:33 -4.3 °C -6.8 °C 34462.7 hPa ENE 6.8 km/h 6.8 km/h 76 % 0 mm
23:35 -5.4 °C -7.1 °C 34462.7 hPa Calm     83 % 0 mm
23:38 -4.3 °C -6.8 °C 34462.7 hPa SE 15.3 km/h 15.3 km/h 76 % 0 mm
23:43 -4.3 °C -6.8 °C 34462.7 hPa ENE 9.8 km/h 9.8 km/h 76 % 0 mm
23:45 -5.4 °C -7.1 °C 34428.8 hPa Calm   2.6 km/h 83 % 0 mm
23:48 -4.3 °C -6.7 °C 34462.7 hPa ESE 14.5 km/h 14.5 km/h 77 % 0 mm
23:53 -4.3 °C -6.7 °C 34462.7 hPa ENE 9 km/h 9 km/h 77 % 0 mm
23:55 -5.5 °C -7.2 °C 34428.8 hPa West 2.6 km/h 2.6 km/h 83 % 0 mm
23:58 -4.4 °C -6.9 °C 34462.7 hPa NNE 9 km/h 9 km/h 76 % 0 mm
Meteo Sesrovires
Elogis d' Weather Underground - 1.5 mb

Guio original per  Jim McMurry - jmcmurry@mwt.net Adaptat per a la plantilla per  Wim van der Kuil - Leuven-Template.eu

Trobareu la nostra informacio del temps tambe a:

Weather Underground

AWEKAS